• Join FlightAware (Why Join?)
  • Login
  • US Flag 
10:09AM EDT


 

Airport Tracker/Info


-or-


 

Live Flight TrackerFlight Track Log ✈ FLG4099 ✈ 05-Jul-2013 ✈ KBTV - KDTW

Flight Track Log - Related Links

Times and Time Zones

All times are in EDT time to prevent confusion due to time zone crossing. See the FLG4099 flight status page for this flight to view local times or setup timezone preferences in your user account.

Time Position Orientation Groundspeed Altitude Reporting Facility
EDT Latitude Longitude Course Direction KTS MPH feet Rate Location/Type
09:22AM 44.3756 -73.6584 253° West  Level FlightAware Approximate
09:22AM 44.3581 -73.3053 255° West 260 299 8,400  Level Boston Center
09:23AM 44.3544 -73.7861 259° West  Level FlightAware Approximate
09:23AM 44.3447 -73.4039 259° West 266 306 10,500  Level Boston Center
09:24AM 44.3360 -73.9147 259° West  Level FlightAware Approximate
09:24AM 44.3292 -73.5108 259° West 266 306 11,000  Level Boston Center
09:25AM 44.3134 -74.0419 256° West  Level FlightAware Approximate
09:25AM 44.3181 -73.6008 260° West 271 312 11,000  Level Boston Center
09:26AM 44.2900 -74.1688 256° West  Level FlightAware Approximate
09:26AM 44.3022 -73.7047 258° West 277 319 12,400  Level Boston Center
09:27AM 44.2664 -74.2957 255° West  Level FlightAware Approximate
09:27AM 44.2886 -73.8089 260° West 277 319 14,200  Level Boston Center
09:28AM 44.2728 -73.9131 258° West 277 319 16,200 1,560 Climbing Boston Center
09:29AM 44.2589 -74.0228 260° West 277 319 17,700 1,380 Climbing Boston Center
09:30AM 44.2381 -74.1642 258° West 277 319 19,300 1,440 Climbing Boston Center
09:31AM 44.2236 -74.2767 260° West 294 338 20,600 1,080 Climbing Boston Center
09:32AM 44.2053 -74.3919 258° West 304 350 21,700 900 Climbing Boston Center
09:33AM 44.1886 -74.5103 259° West 304 350 22,700 840 Climbing Boston Center
09:34AM 44.1608 -74.6539 255° West 316 364 23,400 600 Climbing Boston Center
09:35AM 44.1272 -74.7772 249° West 327 376 23,900 480 Climbing Boston Center
09:36AM 44.0889 -74.9058 248° West 347 399 24,400 480 Climbing Boston Center
09:37AM 44.0508 -75.0342 248° West 357 411 24,900 480 Climbing Boston Center
09:38AM 44.0144 -75.1653 249° West 357 411 25,400 420 Climbing Boston Center
09:39AM 43.9869 -75.2708 250° West 368 423 25,800 300 Climbing Boston Center
09:40AM 43.9389 -75.4331 248° West 373 429 26,000 60 Climbing Boston Center
09:41AM 43.8978 -75.5694 247° West 378 435 26,000  Level Boston Center
09:42AM 43.8564 -75.7083 248° West 383 441 26,000  Level Boston Center
09:43AM 43.8147 -75.8528 248° West 395 455 26,000  Level Boston Center
09:44AM 43.7636 -76.0225 247° West 406 467 26,000 480 Level Boston Center
09:46AM 43.6775 -76.3006 247° West 392 451 27,500 660 Climbing Cleveland Center
09:47AM 43.6386 -76.4353 248° West 386 444 28,000 240 Climbing Cleveland Center
09:48AM 43.5953 -76.5700 246° West 386 444 28,000  Level Cleveland Center
09:49AM 43.5500 -76.7106 246° West 386 444 28,000  Level Cleveland Center
09:50AM 43.5067 -76.8508 247° West 391 450 28,000  Level Cleveland Center
09:51AM 43.4633 -76.9936 247° West 397 457 28,000  Level Cleveland Center
09:52AM 43.4175 -77.1333 246° West 402 463 28,000  Level Cleveland Center
09:53AM 43.3739 -77.2758 247° West 402 463 28,000  Level Cleveland Center
09:54AM 43.3317 -77.4067 246° West 396 456 28,000  Level Cleveland Center
09:55AM 43.2953 -77.5256 247° West 370 426 28,000  Level Cleveland Center
09:56AM 43.2567 -77.6442 246° West 353 406 28,000  Level Cleveland Center
09:57AM 43.2178 -77.7628 246° West 348 400 28,000  Level Cleveland Center
09:58AM 43.1831 -77.8756 247° West 348 400 28,000  Level Cleveland Center
09:59AM 43.1419 -77.9969 245° Southwest 348 400 28,000  Level Cleveland Center
10:00AM 43.1031 -78.1208 247° West 348 400 28,000  Level Cleveland Center
10:01AM 43.0639 -78.2444 247° West 353 406 28,000  Level Cleveland Center
10:02AM 43.0225 -78.3711 246° West 358 412 28,000  Level Cleveland Center
10:03AM 42.9792 -78.4975 245° Southwest 363 418 28,000  Level Cleveland Center
10:04AM 42.9378 -78.6292 247° West 363 418 28,000  Level Cleveland Center
10:05AM 42.9128 -78.7719 257° West 379 436 28,000  Level Cleveland Center
10:06AM 42.8900 -78.9197 258° West 391 450 28,000  Level Cleveland Center
10:07AM 42.8733 -79.0647 261° West 396 456 28,000  Level Cleveland Center
10:08AM 42.8481 -79.2125 257° West 396 456 28,000  Level Cleveland Center
10:09AM 42.8308 -79.3575 261° West 396 456 28,000  Level Cleveland Center
10:10AM 42.8072 -79.4964 257° West 390 449 28,000  Level Cleveland Center
10:11AM 42.7856 -79.6383 258° West 385 443 28,000  Level Cleveland Center
10:12AM 42.7658 -79.7744 259° West 385 443 28,000  Level Cleveland Center
10:13AM 42.7500 -79.9189 262° West 385 443 28,000  Level Cleveland Center
10:14AM 42.7406 -80.0856 266° West 399 459 28,000  Level Cleveland Center
10:15AM 42.7347 -80.2356 267° West 399 459 28,000  Level Cleveland Center
10:16AM 42.7289 -80.3797 267° West 404 465 28,000  Level Cleveland Center
10:17AM 42.7228 -80.5381 267° West 404 465 28,000  Level Cleveland Center
10:18AM 42.7164 -80.6878 267° West 404 465 28,000 -480 Level Cleveland Center
10:19AM 42.7100 -80.8375 267° West 404 465 27,100 -960 Descending Cleveland Center
10:20AM 42.6931 -80.9814 261° West 404 465 26,100 -1,080 Descending Cleveland Center
10:21AM 42.6797 -81.1256 263° West 399 459 25,000 -1,020 Descending Cleveland Center
10:22AM 42.6603 -81.2719 260° West 388 447 24,100 -1,020 Descending Cleveland Center
10:23AM 42.6447 -81.4158 262° West 388 447 23,000 -1,080 Descending Cleveland Center
10:24AM 42.6269 -81.5622 261° West 393 452 22,000 -960 Descending Cleveland Center
10:25AM 42.6133 -81.6864 262° West 388 447 21,100 -960 Descending Cleveland Center
10:26AM 42.5908 -81.8408 259° West 388 447 20,100 -600 Descending Cleveland Center
10:27AM 42.5769 -81.9761 262° West 382 440 20,000 -600 Descending Cleveland Center
10:28AM 42.5606 -82.1139 261° West 376 433 19,000 -1,440 Descending Cleveland Center
10:29AM 42.5531 -82.1897 262° West 354 407 17,700 -2,040 Descending Cleveland Center
10:30AM 42.5297 -82.3667 260° West 355 409 15,100 -2,160 Descending Cleveland Center
10:31AM 42.5131 -82.5014 261° West 349 402 12,700 -1,560 Descending Cleveland Center
10:32AM 42.4797 -82.6186 249° West 353 406 12,000 -720 Descending Cleveland Center
10:32AM 42.4797 -82.6186 249° West 336 387 12,000 -600 Level Cleveland Center
10:33AM 42.4403 -82.7300 244° Southwest 339 390 11,400 -780 Descending Cleveland Center
10:34AM 42.4050 -82.8242 243° Southwest 315 362 10,500 -1,380 Descending Cleveland Center
10:35AM 42.3472 -82.8981 223° Southwest 294 338 8,700 -1,800 Descending Cleveland Center
10:36AM 42.3142 -82.9811 242° Southwest 277 319 7,000 -1,080 Descending Cleveland Center
10:37AM 42.3611 -83.0392 318° Northwest 180 207 6,600 -540 Descending Cleveland Center
10:38AM 42.4081 -83.0803 327° Northwest 185 213 6,000 -720 Descending Cleveland Center
10:40AM 42.4544 -83.1469 313° West 189 217 5,100 -480 Descending Cleveland Center
10:41AM 42.4181 -83.1878 220° Southwest 186 214 5,000 -600 Descending Cleveland Center
10:42AM 42.3736 -83.2222 210° Southwest 190 219 4,000 -1,020 Descending Cleveland Center